createdAt,value
2024-03-24T00:00:13.134Z,86.7195
2024-03-24T00:01:16.161Z,87.0655
2024-03-24T00:02:19.195Z,85.9375
2024-03-24T00:03:22.215Z,86.6112
2024-03-24T00:04:25.288Z,85.3842
2024-03-24T00:05:28.323Z,86.0175
2024-03-24T00:06:31.367Z,85.7282
2024-03-24T00:07:34.396Z,85.2076
2024-03-24T00:08:37.442Z,85.2788
2024-03-24T00:09:40.495Z,86.1279
2024-03-24T00:10:43.533Z,84.8328
2024-03-24T00:11:46.574Z,84.4255
2024-03-24T00:12:49.599Z,84.7023
2024-03-24T00:13:52.652Z,85.2297
2024-03-24T00:14:55.686Z,84.8220
2024-03-24T00:15:59.066Z,85.3663
2024-03-24T00:17:02.121Z,84.4665
2024-03-24T00:18:05.126Z,84.0093
2024-03-24T00:19:08.219Z,84.7490
2024-03-24T00:20:11.252Z,84.2758
2024-03-24T00:21:14.261Z,85.5055
2024-03-24T00:22:17.550Z,83.8934
2024-03-24T00:23:20.590Z,84.0725
2024-03-24T00:24:23.728Z,82.8466
2024-03-24T00:25:26.734Z,83.0907
2024-03-24T00:26:29.769Z,82.7369
2024-03-24T00:27:32.745Z,82.6973
2024-03-24T00:28:35.921Z,84.5836
2024-03-24T00:29:38.939Z,84.0452
2024-03-24T00:30:41.900Z,84.6693
2024-03-24T00:31:44.983Z,83.9066
2024-03-24T00:32:48.018Z,83.9026
2024-03-24T00:33:51.040Z,83.2569
2024-03-24T00:34:54.410Z,83.0638
2024-03-24T00:35:57.608Z,83.3287
2024-03-24T00:37:00.797Z,83.5438
2024-03-24T00:38:03.825Z,84.8247
2024-03-24T00:39:06.883Z,84.0332
2024-03-24T00:40:09.918Z,84.2658
2024-03-24T00:41:12.909Z,84.8702
2024-03-24T00:42:16.004Z,83.9180
2024-03-24T00:43:19.058Z,84.7437
2024-03-24T00:44:22.099Z,84.2275
2024-03-24T00:45:25.146Z,85.0097
2024-03-24T00:46:28.180Z,84.9212
2024-03-24T00:47:31.244Z,85.9386
2024-03-24T00:48:34.247Z,86.5113
2024-03-24T00:49:37.244Z,84.9394
2024-03-24T00:50:40.347Z,84.9505
2024-03-24T00:51:43.362Z,85.2264
2024-03-24T00:52:46.669Z,85.5337
2024-03-24T00:53:49.766Z,85.3663
2024-03-24T00:54:52.787Z,85.5042
2024-03-24T00:55:55.844Z,84.8602
2024-03-24T00:56:58.901Z,85.4770
2024-03-24T00:58:02.275Z,86.0473
2024-03-24T00:59:05.286Z,86.8589
2024-03-24T01:00:08.324Z,86.8770
2024-03-24T01:01:11.391Z,86.8750
2024-03-24T01:02:14.355Z,87.0144
2024-03-24T01:03:17.451Z,86.8291
2024-03-24T01:04:20.507Z,86.7117
2024-03-24T01:05:23.556Z,87.6260
2024-03-24T01:06:26.601Z,87.0012
2024-03-24T01:07:29.676Z,87.9261
2024-03-24T01:08:32.724Z,87.5791
2024-03-24T01:09:35.712Z,87.6469
2024-03-24T01:10:38.752Z,87.4906
2024-03-24T01:11:41.900Z,87.0153
2024-03-24T01:12:44.883Z,87.6316
2024-03-24T01:13:47.900Z,88.3245
2024-03-24T01:14:50.904Z,87.9708
2024-03-24T01:15:53.930Z,88.5183
2024-03-24T01:16:56.893Z,88.8504
2024-03-24T01:18:00.015Z,88.5760
2024-03-24T01:19:03.094Z,87.7884
2024-03-24T01:20:06.073Z,88.4553
2024-03-24T01:21:09.150Z,88.7255
2024-03-24T01:22:12.202Z,89.0422
2024-03-24T01:23:15.198Z,88.9587
2024-03-24T01:24:18.250Z,89.0212
2024-03-24T01:25:21.292Z,88.8500
2024-03-24T01:26:24.392Z,88.8850
2024-03-24T01:27:27.422Z,89.5120
2024-03-24T01:28:30.542Z,89.2635
2024-03-24T01:29:33.532Z,89.1362
2024-03-24T01:30:36.581Z,89.5410
2024-03-24T01:31:39.652Z,89.3798
2024-03-24T01:32:42.652Z,89.0219
2024-03-24T01:33:45.673Z,89.0516
2024-03-24T01:34:48.967Z,89.6186
2024-03-24T01:35:52.045Z,89.9015
2024-03-24T01:36:55.061Z,90.7215
2024-03-24T01:37:58.062Z,91.0492
2024-03-24T01:39:01.132Z,90.8320
2024-03-24T01:40:04.167Z,91.2316
2024-03-24T01:41:07.189Z,91.0822
2024-03-24T01:42:10.196Z,90.2977
2024-03-24T01:43:13.298Z,90.9459
2024-03-24T01:44:16.342Z,91.7769
2024-03-24T01:45:19.353Z,90.6691
2024-03-24T01:46:22.462Z,91.4770
2024-03-24T01:47:25.486Z,91.6235
2024-03-24T01:48:28.493Z,92.0673
2024-03-24T01:49:31.675Z,92.1098
2024-03-24T01:50:34.703Z,92.0129
2024-03-24T01:51:37.684Z,92.6939
2024-03-24T01:52:40.715Z,92.8237
2024-03-24T01:53:43.684Z,92.5964
2024-03-24T01:54:46.746Z,92.6214
2024-03-24T01:55:49.763Z,93.3561
2024-03-24T01:56:52.821Z,93.2553
2024-03-24T01:57:55.867Z,93.4925
2024-03-24T01:58:58.915Z,94.1306
2024-03-24T02:00:01.915Z,93.4628
2024-03-24T02:01:04.936Z,93.2709
2024-03-24T02:02:07.946Z,93.4832
2024-03-24T02:03:11.023Z,93.5345
2024-03-24T02:04:14.132Z,93.5830
2024-03-24T02:05:17.088Z,93.5151
2024-03-24T02:06:20.131Z,94.1215
2024-03-24T02:07:23.166Z,94.4367
2024-03-24T02:08:26.190Z,94.1744
2024-03-24T02:09:29.234Z,94.6165
2024-03-24T02:10:32.275Z,94.5601
2024-03-24T02:11:35.318Z,94.6770
2024-03-24T02:12:38.312Z,94.7257
2024-03-24T02:13:41.426Z,95.2553
2024-03-24T02:14:44.441Z,95.1085
2024-03-24T02:15:47.467Z,94.3467
2024-03-24T02:16:50.535Z,94.5537
2024-03-24T02:17:57.815Z,95.2199
2024-03-24T02:18:55.646Z,95.1758
2024-03-24T02:19:58.644Z,95.0976
2024-03-24T02:21:01.726Z,92.3589
2024-03-24T02:22:04.755Z,93.3895
2024-03-24T02:23:07.914Z,93.3433
2024-03-24T02:24:10.907Z,93.2870
2024-03-24T02:25:13.920Z,93.2201
2024-03-24T02:26:17.267Z,93.1598
2024-03-24T02:27:20.344Z,93.0961
2024-03-24T02:28:23.384Z,93.0391
2024-03-24T02:29:26.674Z,93.0031
2024-03-24T02:30:26.588Z,92.9816
2024-03-24T02:31:29.577Z,92.9639
2024-03-24T02:32:32.669Z,92.9797
2024-03-24T02:33:35.703Z,92.9998
2024-03-24T02:34:38.723Z,93.0271
2024-03-24T02:35:41.726Z,93.0452
2024-03-24T02:36:44.753Z,93.0666
2024-03-24T02:37:47.799Z,93.0978
2024-03-24T02:38:50.844Z,93.1103
2024-03-24T02:39:53.952Z,93.1365
2024-03-24T02:40:56.985Z,93.1532
2024-03-24T02:42:00.072Z,93.1801
2024-03-24T02:43:03.109Z,93.2106
2024-03-24T02:44:06.149Z,93.2214
2024-03-24T02:45:09.244Z,93.2461
2024-03-24T02:46:12.273Z,93.2765
2024-03-24T02:47:15.488Z,93.2911
2024-03-24T02:48:18.532Z,93.3153
2024-03-24T02:49:21.554Z,93.3304
2024-03-24T02:50:24.586Z,93.3574
2024-03-24T02:51:27.906Z,93.3714
2024-03-24T02:52:30.993Z,93.3921
2024-03-24T02:53:34.068Z,93.3979
2024-03-24T02:54:37.136Z,93.4265
2024-03-24T02:55:40.136Z,93.4481
2024-03-24T02:56:43.154Z,93.4603
2024-03-24T02:57:46.353Z,93.4772
2024-03-24T02:58:49.351Z,93.4885
2024-03-24T02:59:52.617Z,93.5161
2024-03-24T03:00:55.624Z,93.5301
2024-03-24T03:01:58.677Z,93.5349
2024-03-24T03:03:01.712Z,93.5403
2024-03-24T03:04:04.708Z,93.5637
2024-03-24T03:05:07.811Z,93.5718
2024-03-24T03:06:11.170Z,93.5944
2024-03-24T03:07:14.174Z,93.6082
2024-03-24T03:08:17.195Z,93.6215
2024-03-24T03:09:20.285Z,93.6322
2024-03-24T03:10:23.324Z,93.6422
2024-03-24T03:11:26.341Z,93.6624
2024-03-24T03:12:29.421Z,93.6718
2024-03-24T03:13:32.409Z,93.6925
2024-03-24T03:14:35.478Z,93.7066
2024-03-24T03:15:38.687Z,93.7206
2024-03-24T03:16:41.692Z,93.7333
2024-03-24T03:17:44.673Z,93.7381
2024-03-24T03:18:47.963Z,93.7560
2024-03-24T03:19:50.990Z,93.7817
2024-03-24T03:20:54.043Z,93.7782
2024-03-24T03:21:57.042Z,93.7967
2024-03-24T03:23:00.144Z,93.8092
2024-03-24T03:24:03.159Z,93.8209
2024-03-24T03:25:06.205Z,93.8249
2024-03-24T03:26:09.240Z,93.8399
2024-03-24T03:27:12.229Z,93.8679
2024-03-24T03:28:15.333Z,93.8738
2024-03-24T03:29:18.364Z,93.8891
2024-03-24T03:30:21.443Z,93.8954
2024-03-24T03:31:24.443Z,93.9113
2024-03-24T03:32:27.498Z,93.9211
2024-03-24T03:33:30.555Z,93.9347
2024-03-24T03:34:33.565Z,93.9439
2024-03-24T03:35:36.604Z,93.9636
2024-03-24T03:36:39.640Z,93.9711
2024-03-24T03:37:42.735Z,93.9784
2024-03-24T03:38:45.818Z,93.9941
2024-03-24T03:39:48.882Z,94.0069
2024-03-24T03:40:51.901Z,94.0183
2024-03-24T03:41:55.166Z,94.0183
2024-03-24T03:42:58.189Z,94.0170
2024-03-24T03:44:01.255Z,94.0329
2024-03-24T03:45:04.281Z,94.0417
2024-03-24T03:46:07.320Z,94.0581
2024-03-24T03:47:10.306Z,94.0655
2024-03-24T03:48:13.398Z,94.0810
2024-03-24T03:49:16.523Z,94.0865
2024-03-24T03:50:19.574Z,94.1065
2024-03-24T03:51:22.618Z,94.1159
2024-03-24T03:52:25.668Z,94.1354
2024-03-24T03:53:28.686Z,94.1488
2024-03-24T03:54:31.731Z,94.1573
2024-03-24T03:55:34.750Z,94.1647
2024-03-24T03:56:37.861Z,94.1901
2024-03-24T03:57:40.867Z,94.2057
2024-03-24T03:58:43.891Z,94.2149
2024-03-24T03:59:46.987Z,94.2301
2024-03-24T04:00:49.949Z,94.2484
2024-03-24T04:01:52.931Z,94.2712
2024-03-24T04:02:55.972Z,94.2906
2024-03-24T04:03:58.942Z,94.3104
2024-03-24T04:05:02.044Z,94.3164
2024-03-24T04:06:05.067Z,94.3240
2024-03-24T04:07:08.119Z,94.3227
2024-03-24T04:08:11.186Z,94.3278
2024-03-24T04:09:14.213Z,94.3427
2024-03-24T04:10:17.395Z,94.3415
2024-03-24T04:11:20.420Z,95.0980
2024-03-24T04:12:23.472Z,96.9135
2024-03-24T04:13:26.775Z,96.9637
2024-03-24T04:14:29.795Z,96.9855
2024-03-24T04:15:32.781Z,96.9891
2024-03-24T04:16:35.970Z,96.9974
2024-03-24T04:17:38.953Z,97.0140
2024-03-24T04:18:42.023Z,97.0252
2024-03-24T04:19:45.028Z,97.0693
2024-03-24T04:20:48.294Z,97.5346
2024-03-24T04:21:51.343Z,98.6478
2024-03-24T04:22:54.373Z,99.9000
2024-03-24T04:23:57.423Z,97.9056
2024-03-24T04:25:00.528Z,97.1428
2024-03-24T04:26:03.525Z,97.0114
2024-03-24T04:27:06.544Z,96.8244
2024-03-24T04:28:09.557Z,96.7775
2024-03-24T04:29:12.562Z,96.9581
2024-03-24T04:30:15.682Z,97.1085
2024-03-24T04:31:18.689Z,96.9958
2024-03-24T04:32:21.745Z,96.8060
2024-03-24T04:33:24.755Z,96.8127
2024-03-24T04:34:27.766Z,97.0338
2024-03-24T04:35:30.857Z,96.9488
2024-03-24T04:36:34.043Z,97.1801
2024-03-24T04:37:37.046Z,97.2295
2024-03-24T04:38:40.059Z,97.5606
2024-03-24T04:39:43.326Z,97.7129
2024-03-24T04:40:46.396Z,97.7696
2024-03-24T04:41:49.475Z,97.4918
2024-03-24T04:42:52.643Z,97.6081
2024-03-24T04:43:55.782Z,97.6083
2024-03-24T04:44:58.843Z,97.6771
2024-03-24T04:46:01.894Z,97.6582
2024-03-24T04:47:04.919Z,97.9276
2024-03-24T04:48:07.955Z,97.9411
2024-03-24T04:49:11.016Z,98.1486
2024-03-24T04:50:14.042Z,98.2790
2024-03-24T04:51:17.143Z,98.3790
2024-03-24T04:52:20.184Z,98.4768
2024-03-24T04:53:23.252Z,98.6080
2024-03-24T04:54:26.515Z,98.7456
2024-03-24T04:55:29.586Z,98.7016
2024-03-24T04:56:32.612Z,98.6436
2024-03-24T04:57:35.632Z,98.6950
2024-03-24T04:58:38.691Z,98.8626
2024-03-24T04:59:41.784Z,98.9281
2024-03-24T05:00:44.868Z,98.7986
2024-03-24T05:01:47.884Z,98.4941
2024-03-24T05:02:50.943Z,98.3454
2024-03-24T05:03:53.961Z,97.8464
2024-03-24T05:04:56.956Z,97.9809
2024-03-24T05:06:00.049Z,98.3814
2024-03-24T05:07:03.088Z,98.5270
2024-03-24T05:08:06.114Z,98.5595
2024-03-24T05:09:09.123Z,98.9323
2024-03-24T05:10:12.219Z,99.0810
2024-03-24T05:11:15.203Z,99.1403
2024-03-24T05:12:18.351Z,99.3304
2024-03-24T05:13:21.343Z,99.4327
2024-03-24T05:14:24.387Z,99.4231
2024-03-24T05:15:27.455Z,99.5282
2024-03-24T05:16:30.489Z,99.6613
2024-03-24T05:17:33.631Z,99.7605
2024-03-24T05:18:36.800Z,99.6661
2024-03-24T05:19:39.834Z,99.6874
2024-03-24T05:20:42.869Z,99.6438
2024-03-24T05:21:45.935Z,99.6278
2024-03-24T05:22:49.036Z,99.5655
2024-03-24T05:23:52.104Z,99.5629
2024-03-24T05:24:55.362Z,99.7072
2024-03-24T05:25:58.365Z,99.8400
2024-03-24T05:27:01.465Z,99.9674
2024-03-24T05:28:04.543Z,99.9571
2024-03-24T05:29:07.572Z,99.7971
2024-03-24T05:30:10.643Z,99.6329
2024-03-24T05:31:13.919Z,99.6935
2024-03-24T05:32:16.952Z,99.6358
2024-03-24T05:33:19.992Z,99.6526
2024-03-24T05:34:23.032Z,99.7229
2024-03-24T05:35:26.068Z,99.7147
2024-03-24T05:36:28.561Z,99.6649
2024-03-24T05:37:30.997Z,99.6973
2024-03-24T05:38:33.593Z,99.6733
2024-03-24T05:39:36.049Z,99.5766
2024-03-24T05:40:38.533Z,99.6654
2024-03-24T05:41:41.109Z,99.7302
2024-03-24T05:42:43.624Z,99.6876
2024-03-24T05:43:46.237Z,99.5401
2024-03-24T05:44:48.727Z,99.4653
2024-03-24T05:45:51.191Z,99.4628
2024-03-24T05:46:53.771Z,99.4998
2024-03-24T05:47:56.225Z,99.4942
2024-03-24T05:48:58.701Z,99.6285
2024-03-24T05:50:01.198Z,99.7025
2024-03-24T05:51:03.699Z,99.7864
2024-03-24T05:52:06.161Z,99.7887
2024-03-24T05:53:08.808Z,99.6264
2024-03-24T05:54:11.315Z,99.1374
2024-03-24T05:55:13.756Z,99.1759
2024-03-24T05:56:16.307Z,99.2530
2024-03-24T05:57:18.792Z,99.0835
2024-03-24T05:58:21.255Z,98.9164
2024-03-24T05:59:23.896Z,99.0148
2024-03-24T06:00:26.505Z,98.8966
2024-03-24T06:01:28.922Z,98.8975
2024-03-24T06:02:31.360Z,98.8676
2024-03-24T06:03:34.087Z,98.4009
2024-03-24T06:04:36.482Z,98.3007
2024-03-24T06:05:38.900Z,98.2428
2024-03-24T06:06:41.353Z,98.1671
2024-03-24T06:07:43.811Z,97.8644
2024-03-24T06:08:46.375Z,97.6760
2024-03-24T06:09:48.791Z,97.2584
2024-03-24T06:10:51.514Z,97.3440
2024-03-24T06:11:54.033Z,97.1417
2024-03-24T06:12:56.440Z,97.5065
2024-03-24T06:13:58.960Z,97.6241
2024-03-24T06:15:01.382Z,97.3917
2024-03-24T06:16:03.832Z,96.5043
2024-03-24T06:17:06.257Z,96.6899
2024-03-24T06:18:08.945Z,96.6547
2024-03-24T06:19:14.213Z,96.8515
2024-03-24T06:20:13.735Z,96.9677
2024-03-24T06:21:16.157Z,96.6379
2024-03-24T06:22:18.574Z,96.7238
2024-03-24T06:23:21.022Z,96.8153
2024-03-24T06:24:23.461Z,95.9983
2024-03-24T06:25:25.911Z,95.8927
2024-03-24T06:26:28.474Z,95.8909
2024-03-24T06:27:30.925Z,95.1520
2024-03-24T06:28:33.603Z,95.2290
2024-03-24T06:29:36.047Z,94.9723
2024-03-24T06:30:38.667Z,94.1221
2024-03-24T06:31:43.842Z,94.3064
2024-03-24T06:32:44.808Z,93.6166
2024-03-24T06:33:47.277Z,93.5274
2024-03-24T06:34:49.713Z,93.7442
2024-03-24T06:35:52.311Z,93.0593
2024-03-24T06:36:54.718Z,92.6413
2024-03-24T06:37:57.179Z,93.1468
2024-03-24T06:38:59.604Z,93.2837
2024-03-24T06:40:02.031Z,93.4550
2024-03-24T06:41:04.479Z,93.4369
2024-03-24T06:42:07.027Z,92.6283
2024-03-24T06:43:09.521Z,92.9347
2024-03-24T06:44:11.914Z,92.4480
2024-03-24T06:45:14.382Z,92.4688
2024-03-24T06:46:16.958Z,92.2810
2024-03-24T06:47:19.398Z,91.9923
2024-03-24T06:48:21.865Z,91.7850
2024-03-24T06:49:24.303Z,91.8279
2024-03-24T06:50:26.874Z,91.4157
2024-03-24T06:51:29.312Z,90.9116
2024-03-24T06:52:32.040Z,91.5423
2024-03-24T06:53:34.800Z,91.7346
2024-03-24T06:54:37.370Z,91.7337
2024-03-24T06:55:39.794Z,91.7715
2024-03-24T06:56:42.554Z,92.4946
2024-03-24T06:57:45.284Z,91.8019
2024-03-24T06:58:47.745Z,91.6357
2024-03-24T06:59:50.182Z,91.9089
2024-03-24T07:00:52.618Z,91.9810
2024-03-24T07:01:55.200Z,91.5879
2024-03-24T07:02:57.638Z,91.6637
2024-03-24T07:04:00.299Z,92.2221
2024-03-24T07:05:02.760Z,92.5649
2024-03-24T07:06:05.429Z,92.5111
2024-03-24T07:07:07.842Z,92.8976
2024-03-24T07:08:10.279Z,92.7530
2024-03-24T07:09:12.742Z,92.6890
2024-03-24T07:10:15.183Z,91.4583
2024-03-24T07:11:17.762Z,91.8956
2024-03-24T07:12:20.189Z,92.4932
2024-03-24T07:13:22.830Z,91.8260
2024-03-24T07:14:25.272Z,91.5739
2024-03-24T07:15:27.741Z,90.9967
2024-03-24T07:16:30.199Z,91.1071
2024-03-24T07:17:32.621Z,90.7178
2024-03-24T07:18:35.041Z,89.9740
2024-03-24T07:19:37.601Z,90.4512
2024-03-24T07:20:40.040Z,89.0011
2024-03-24T07:21:42.448Z,88.4356
2024-03-24T07:22:44.940Z,88.5659
2024-03-24T07:23:47.385Z,87.7771
2024-03-24T07:24:49.930Z,87.7244
2024-03-24T07:25:52.632Z,87.9669
2024-03-24T07:26:55.133Z,86.8544
2024-03-24T07:27:58.069Z,87.5848
2024-03-24T07:29:01.124Z,87.4757
2024-03-24T07:30:04.161Z,87.4943
2024-03-24T07:31:07.180Z,87.9064
2024-03-24T07:32:10.231Z,87.9924
2024-03-24T07:33:13.410Z,88.0706
2024-03-24T07:34:16.434Z,87.6456
2024-03-24T07:35:19.486Z,88.3746
2024-03-24T07:36:22.509Z,88.4126
2024-03-24T07:37:25.520Z,88.1842
2024-03-24T07:38:28.543Z,88.1047
2024-03-24T07:39:31.576Z,87.1903
2024-03-24T07:40:34.871Z,85.7013
2024-03-24T07:41:37.914Z,85.9512
2024-03-24T07:42:43.515Z,86.0274
2024-03-24T07:43:44.061Z,84.5685
2024-03-24T07:44:47.111Z,84.8460
2024-03-24T07:45:50.127Z,85.4343
2024-03-24T07:46:53.226Z,85.8345
2024-03-24T07:47:56.258Z,84.8386
2024-03-24T07:48:59.298Z,85.5724
2024-03-24T07:50:02.335Z,85.8917
2024-03-24T07:51:05.342Z,84.7665
2024-03-24T07:52:08.361Z,84.8605
2024-03-24T07:53:11.390Z,85.8747
2024-03-24T07:54:14.526Z,85.7894
2024-03-24T07:55:17.584Z,84.7940
2024-03-24T07:56:20.557Z,85.0681
2024-03-24T07:57:23.831Z,84.3486
2024-03-24T07:58:27.053Z,84.7595
2024-03-24T07:59:30.198Z,85.5466
2024-03-24T08:00:33.253Z,85.8313
2024-03-24T08:01:36.305Z,84.8370
2024-03-24T08:02:39.387Z,84.5694
2024-03-24T08:03:42.381Z,85.3003
2024-03-24T08:04:45.471Z,85.6026
2024-03-24T08:05:48.548Z,84.4971
2024-03-24T08:06:51.630Z,83.5465
2024-03-24T08:07:56.440Z,83.0005
2024-03-24T08:08:56.422Z,82.3991
2024-03-24T08:09:59.651Z,80.4696
2024-03-24T08:11:02.703Z,79.3739
2024-03-24T08:12:05.831Z,79.0890
2024-03-24T08:13:08.841Z,80.1874
2024-03-24T08:14:11.936Z,79.6275
2024-03-24T08:15:14.953Z,78.8175
2024-03-24T08:16:17.965Z,78.7597
2024-03-24T08:17:21.267Z,79.0673
2024-03-24T08:18:24.301Z,79.4180
2024-03-24T08:19:27.341Z,81.5573
2024-03-24T08:20:30.431Z,80.0164
2024-03-24T08:21:33.522Z,79.1600
2024-03-24T08:22:36.804Z,77.9137
2024-03-24T08:23:39.909Z,78.7258
2024-03-24T08:24:42.928Z,79.6154
2024-03-24T08:25:45.896Z,78.9689
2024-03-24T08:26:48.968Z,79.9031
2024-03-24T08:27:51.981Z,79.5944
2024-03-24T08:28:55.007Z,79.5917
2024-03-24T08:29:58.052Z,76.3714
2024-03-24T08:31:01.061Z,76.8404
2024-03-24T08:32:04.074Z,75.9025
2024-03-24T08:33:07.181Z,74.8779
2024-03-24T08:34:10.220Z,74.5126
2024-03-24T08:35:13.221Z,74.8296
2024-03-24T08:36:16.629Z,73.3511
2024-03-24T08:37:19.696Z,75.2574
2024-03-24T08:38:22.869Z,76.3426
2024-03-24T08:39:25.889Z,77.0536
2024-03-24T08:40:31.120Z,77.5533
2024-03-24T08:41:31.911Z,77.5436
2024-03-24T08:42:34.904Z,76.3144
2024-03-24T08:43:37.899Z,76.5832
2024-03-24T08:44:40.958Z,76.8033
2024-03-24T08:45:43.994Z,76.7831
2024-03-24T08:46:47.043Z,76.5208
2024-03-24T08:47:50.058Z,75.3635
2024-03-24T08:48:53.087Z,75.5814
2024-03-24T08:49:56.147Z,76.1251
2024-03-24T08:50:59.126Z,76.3508
2024-03-24T08:52:02.253Z,76.2747
2024-03-24T08:53:05.258Z,77.1324
2024-03-24T08:54:08.567Z,78.9778
2024-03-24T08:55:11.704Z,78.0803
2024-03-24T08:56:14.700Z,78.4512
2024-03-24T08:57:17.736Z,79.4915
2024-03-24T08:58:20.800Z,79.8287
2024-03-24T08:59:23.996Z,79.2415
2024-03-24T09:00:27.190Z,79.0448
2024-03-24T09:01:30.283Z,79.4592
2024-03-24T09:02:33.503Z,78.4504
2024-03-24T09:03:36.600Z,78.6864
2024-03-24T09:04:39.690Z,79.0676
2024-03-24T09:05:42.756Z,77.8474
2024-03-24T09:06:45.769Z,79.4059
2024-03-24T09:07:48.817Z,76.4974
2024-03-24T09:08:51.865Z,77.4901
2024-03-24T09:09:54.893Z,78.0478
2024-03-24T09:10:57.888Z,75.8718
2024-03-24T09:12:01.046Z,76.1315
2024-03-24T09:13:04.060Z,75.3156
2024-03-24T09:14:07.076Z,75.3541
2024-03-24T09:15:10.267Z,75.1647
2024-03-24T09:16:13.239Z,73.9669
2024-03-24T09:17:16.392Z,72.2776
2024-03-24T09:18:19.495Z,71.5959
2024-03-24T09:19:22.548Z,72.2979
2024-03-24T09:20:25.620Z,70.1756
2024-03-24T09:21:28.643Z,69.6607
2024-03-24T09:22:31.657Z,69.9590
2024-03-24T09:23:34.706Z,68.3514
2024-03-24T09:24:37.752Z,66.8326
2024-03-24T09:25:40.772Z,64.8888
2024-03-24T09:26:43.822Z,64.8173
2024-03-24T09:27:46.869Z,62.5614
2024-03-24T09:28:49.889Z,61.8149
2024-03-24T09:29:52.989Z,61.8386
2024-03-24T09:30:56.033Z,63.5539
2024-03-24T09:31:59.075Z,61.7684
2024-03-24T09:33:02.092Z,62.3687
2024-03-24T09:34:05.354Z,64.7640
2024-03-24T09:35:13.272Z,63.6275
2024-03-24T09:36:10.583Z,62.9012
2024-03-24T09:37:13.575Z,62.8550
2024-03-24T09:38:16.856Z,65.7316
2024-03-24T09:39:19.962Z,65.2666
2024-03-24T09:40:23.054Z,63.6920
2024-03-24T09:41:26.096Z,68.4004
2024-03-24T09:42:29.100Z,69.9007
2024-03-24T09:43:32.160Z,69.1175
2024-03-24T09:44:35.234Z,67.4093
2024-03-24T09:45:38.260Z,66.6031
2024-03-24T09:46:41.242Z,66.9970
2024-03-24T09:47:44.301Z,67.9672
2024-03-24T09:48:47.301Z,68.3640
2024-03-24T09:49:50.319Z,68.3900
2024-03-24T09:50:53.393Z,64.8313
2024-03-24T09:51:56.452Z,64.8970
2024-03-24T09:52:59.489Z,62.7905
2024-03-24T09:54:02.553Z,64.0570
2024-03-24T09:55:05.580Z,62.6104
2024-03-24T09:56:08.608Z,62.6178
2024-03-24T09:57:11.663Z,63.3746
2024-03-24T09:58:17.214Z,64.3326
2024-03-24T09:59:17.462Z,63.4795
2024-03-24T10:00:20.724Z,64.1127
2024-03-24T10:01:23.826Z,60.9461
2024-03-24T10:02:26.845Z,60.9377
2024-03-24T10:03:29.922Z,62.4544
2024-03-24T10:04:32.922Z,60.3773
2024-03-24T10:05:35.981Z,62.4254
2024-03-24T10:06:38.996Z,63.1458
2024-03-24T10:07:42.053Z,63.3739
2024-03-24T10:08:45.104Z,64.0669
2024-03-24T10:09:48.187Z,63.6767
2024-03-24T10:10:51.163Z,64.3318
2024-03-24T10:11:54.314Z,66.6447
2024-03-24T10:12:57.334Z,67.3475
2024-03-24T10:14:00.364Z,65.9956
2024-03-24T10:15:03.389Z,65.7948
2024-03-24T10:16:06.400Z,66.4375
2024-03-24T10:17:09.433Z,66.6234
2024-03-24T10:18:09.652Z,66.3068
2024-03-24T10:19:12.697Z,66.7972
2024-03-24T10:20:15.746Z,66.1142
2024-03-24T10:21:18.741Z,67.8249
2024-03-24T10:22:22.090Z,68.7167
2024-03-24T10:23:25.100Z,71.6019
2024-03-24T10:24:28.140Z,72.0909
2024-03-24T10:25:31.198Z,72.6593
2024-03-24T10:26:34.269Z,73.8934
2024-03-24T10:27:37.297Z,74.9698
2024-03-24T10:28:40.313Z,74.7282
2024-03-24T10:29:43.429Z,75.2528
2024-03-24T10:30:46.445Z,76.0600
2024-03-24T10:31:52.731Z,75.8524
2024-03-24T10:32:52.843Z,75.5848
2024-03-24T10:33:55.848Z,74.9620
2024-03-24T10:34:58.858Z,73.4785
2024-03-24T10:36:02.032Z,70.2402
2024-03-24T10:37:05.041Z,69.3998
2024-03-24T10:38:08.189Z,70.0290
2024-03-24T10:39:11.242Z,72.0890
2024-03-24T10:40:14.371Z,71.4499
2024-03-24T10:41:17.420Z,70.2263
2024-03-24T10:42:20.459Z,67.7206
2024-03-24T10:43:23.525Z,67.5826
2024-03-24T10:44:26.502Z,66.0951
2024-03-24T10:45:29.542Z,67.4782
2024-03-24T10:46:32.579Z,68.9058
2024-03-24T10:47:35.712Z,67.8615
2024-03-24T10:48:38.730Z,69.3528
2024-03-24T10:49:41.789Z,69.0193
2024-03-24T10:50:44.814Z,67.3710
2024-03-24T10:51:47.855Z,66.4664
2024-03-24T10:52:53.250Z,64.2495
2024-03-24T10:53:53.318Z,66.3076
2024-03-24T10:54:56.348Z,62.4671
2024-03-24T10:55:59.379Z,62.9386
2024-03-24T10:57:02.394Z,65.6522
2024-03-24T10:58:05.413Z,64.0618
2024-03-24T10:59:11.307Z,65.0031
2024-03-24T11:00:08.717Z,67.8778
2024-03-24T11:01:11.999Z,66.9833
2024-03-24T11:02:15.077Z,68.9039
2024-03-24T11:03:18.131Z,69.7938
2024-03-24T11:04:21.149Z,72.1115
2024-03-24T11:05:24.160Z,73.7918
2024-03-24T11:06:27.180Z,75.1873
2024-03-24T11:07:30.246Z,79.8700
2024-03-24T11:08:33.269Z,82.1925
2024-03-24T11:09:36.289Z,83.3016
2024-03-24T11:10:39.346Z,84.2350
2024-03-24T11:11:42.478Z,85.8331
2024-03-24T11:12:45.609Z,86.8648
2024-03-24T11:13:48.778Z,88.5150
2024-03-24T11:14:51.880Z,88.3333
2024-03-24T11:15:54.904Z,87.4329
2024-03-24T11:16:57.408Z,87.2955
2024-03-24T11:17:59.971Z,85.5511
2024-03-24T11:19:02.420Z,85.6670
2024-03-24T11:20:04.886Z,84.5826
2024-03-24T11:21:07.347Z,82.2713
2024-03-24T11:22:09.772Z,80.7834
2024-03-24T11:23:12.292Z,82.8436
2024-03-24T11:24:14.747Z,83.3253
2024-03-24T11:25:17.350Z,81.0286
2024-03-24T11:26:19.898Z,80.3037
2024-03-24T11:27:22.926Z,80.8672
2024-03-24T11:28:23.083Z,79.0850
2024-03-24T11:29:26.177Z,81.5322
2024-03-24T11:30:29.177Z,78.6901
2024-03-24T11:31:32.167Z,75.9445
2024-03-24T11:32:35.178Z,78.9407
2024-03-24T11:33:38.220Z,77.6972
2024-03-24T11:34:41.248Z,78.7483
2024-03-24T11:35:44.340Z,79.0070
2024-03-24T11:36:47.375Z,80.2564
2024-03-24T11:37:50.445Z,78.9307
2024-03-24T11:38:53.418Z,76.5352
2024-03-24T11:39:56.495Z,76.6315
2024-03-24T11:40:59.539Z,75.6435
2024-03-24T11:42:02.592Z,74.1325
2024-03-24T11:43:05.619Z,72.0303
2024-03-24T11:44:08.645Z,72.9528
2024-03-24T11:45:11.727Z,69.9349
2024-03-24T11:46:14.717Z,69.4071
2024-03-24T11:47:17.778Z,68.6461
2024-03-24T11:48:20.829Z,69.7876
2024-03-24T11:49:23.849Z,67.8918
2024-03-24T11:50:27.239Z,66.9637
2024-03-24T11:51:30.262Z,67.3147
2024-03-24T11:52:33.366Z,67.4267
2024-03-24T11:53:36.395Z,67.6122
2024-03-24T11:54:39.420Z,66.8879
2024-03-24T11:55:42.419Z,67.8882
2024-03-24T11:56:45.465Z,65.0908
2024-03-24T11:57:48.529Z,64.0333
2024-03-24T11:58:51.540Z,66.2781
2024-03-24T11:59:54.576Z,65.3709
2024-03-24T12:00:57.628Z,66.1302
2024-03-24T12:02:00.662Z,68.4412
2024-03-24T12:03:03.747Z,65.9064
2024-03-24T12:04:06.736Z,66.0572
2024-03-24T12:05:09.748Z,66.7866
2024-03-24T12:06:12.798Z,65.9462
2024-03-24T12:07:15.898Z,68.3376
2024-03-24T12:08:18.908Z,66.6865
2024-03-24T12:09:21.921Z,67.6432
2024-03-24T12:10:24.987Z,65.3139
2024-03-24T12:11:28.027Z,64.5025
2024-03-24T12:12:31.067Z,64.9377
2024-03-24T12:13:34.116Z,65.1643
2024-03-24T12:14:37.146Z,63.2536
2024-03-24T12:15:40.171Z,64.7431
2024-03-24T12:16:43.247Z,65.1101
2024-03-24T12:17:46.287Z,64.5430
2024-03-24T12:18:49.306Z,63.8423
2024-03-24T12:19:52.372Z,62.8704
2024-03-24T12:20:55.504Z,59.4560
2024-03-24T12:21:58.570Z,58.9915
2024-03-24T12:23:01.606Z,60.4667
2024-03-24T12:24:04.826Z,58.3291
2024-03-24T12:25:07.824Z,59.0295
2024-03-24T12:26:10.834Z,61.2031
2024-03-24T12:27:13.940Z,60.4728
2024-03-24T12:28:16.985Z,59.0311
2024-03-24T12:29:20.020Z,58.8838
2024-03-24T12:30:23.074Z,56.8494
2024-03-24T12:31:26.426Z,57.8919
2024-03-24T12:32:29.461Z,57.1107
2024-03-24T12:33:32.499Z,59.1657
2024-03-24T12:34:35.540Z,59.8738
2024-03-24T12:35:38.588Z,59.3322
2024-03-24T12:36:41.618Z,61.3488
2024-03-24T12:37:44.698Z,60.5859
2024-03-24T12:38:47.719Z,61.6967
2024-03-24T12:39:50.736Z,60.4625
2024-03-24T12:40:55.245Z,61.7284